Time;durP1;ratioP1;P1;durP2;ratioP2;P2;SDS_P1;SDS_P2;PMS_P1;PMS_P2;Temp;Humidity;BMP_temperature;BMP_pressure;BME280_temperature;BME280_humidity;BME280_pressure;Samples;Min_cycle;Max_cycle;Signal;HPM_P1;HPM_P2
2022/09/15 00:01:52;;;;;;;0.50;0.50;;;14.40;99.90;;;;;;4390302;32;20073;-77
2022/09/15 00:04:17;;;;;;;0.70;0.70;;;14.30;99.90;;;;;;4411327;32;20078;-77
2022/09/15 00:06:46;;;;;;;0.40;0.40;;;14.40;99.90;;;;;;4412032;32;20120;-77
2022/09/15 00:09:11;;;;;;;0.40;0.40;;;14.40;99.90;;;;;;4409278;32;20751;-77
2022/09/15 00:11:37;;;;;;;0.47;0.47;;;14.40;99.90;;;;;;4410775;32;20102;-77
2022/09/15 00:14:05;;;;;;;2.55;0.70;;;14.40;99.90;;;;;;4400198;32;20078;-77
2022/09/15 00:16:31;;;;;;;0.73;0.73;;;14.40;99.90;;;;;;4393821;32;22131;-77
2022/09/15 00:18:58;;;;;;;0.77;0.60;;;14.30;99.90;;;;;;4407044;32;20089;-77
2022/09/15 00:21:27;;;;;;;1.45;0.85;;;14.30;99.90;;;;;;4408492;32;20194;-77
2022/09/15 00:23:53;;;;;;;1.95;0.75;;;14.30;99.90;;;;;;4408308;32;20065;-77
2022/09/15 00:26:21;;;;;;;0.40;0.40;;;14.20;99.90;;;;;;4406567;32;20085;-77
2022/09/15 00:28:47;;;;;;;0.40;0.40;;;14.20;99.90;;;;;;4393912;32;20073;-77
2022/09/15 00:31:16;;;;;;;0.40;0.40;;;14.30;99.90;;;;;;4380433;32;20086;-77
2022/09/15 00:33:42;;;;;;;0.35;0.35;;;14.30;99.90;;;;;;4409849;32;20097;-77
2022/09/15 00:36:09;;;;;;;0.80;0.60;;;14.20;99.90;;;;;;4411281;32;20073;-77
2022/09/15 00:38:36;;;;;;;0.60;0.55;;;14.20;99.90;;;;;;4410214;32;20105;-77
2022/09/15 00:41:03;;;;;;;0.50;0.50;;;14.20;99.90;;;;;;4410546;32;20113;-77
2022/09/15 00:43:51;;;;;;;0.40;0.40;;;14.20;99.90;;;;;;4405352;32;20098;-77
2022/09/15 00:46:19;;;;;;;2.50;1.65;;;14.20;99.90;;;;;;4394111;32;20097;-77
2022/09/15 00:49:08;;;;;;;0.52;0.52;;;14.20;99.90;;;;;;4409914;32;20069;-77
2022/09/15 00:51:56;;;;;;;1.98;0.90;;;14.20;99.90;;;;;;4397823;32;20096;-77
2022/09/15 00:54:43;;;;;;;0.60;0.60;;;14.10;99.90;;;;;;4397441;32;20086;-77
2022/09/15 00:57:15;;;;;;;0.40;0.40;;;14.10;99.90;;;;;;4405732;32;20434;-77
2022/09/15 00:59:42;;;;;;;0.40;0.40;;;14.10;99.90;;;;;;4386752;32;20065;-76
2022/09/15 01:02:20;;;;;;;0.57;0.57;;;14.20;99.90;;;;;;4395617;32;20640;-76
2022/09/15 01:04:46;;;;;;;0.50;0.50;;;14.10;99.90;;;;;;4410428;32;20069;-76
2022/09/15 01:07:15;;;;;;;0.50;0.50;;;14.20;99.90;;;;;;4407380;32;20066;-76
2022/09/15 01:09:51;;;;;;;0.40;0.40;;;14.10;99.90;;;;;;4409757;32;20411;-77
2022/09/15 01:12:17;;;;;;;1.10;1.00;;;14.10;99.90;;;;;;4409406;32;20147;-76
2022/09/15 01:14:43;;;;;;;3.97;0.55;;;14.10;99.90;;;;;;4396171;32;20099;-77
2022/09/15 01:17:18;;;;;;;0.40;0.40;;;14.10;99.90;;;;;;4398503;32;20109;-77
2022/09/15 01:20:13;;;;;;;0.65;0.65;;;14.10;99.90;;;;;;4408705;32;20089;-77
2022/09/15 01:23:07;;;;;;;2.92;1.37;;;14.10;99.90;;;;;;4407379;32;20160;-77
2022/09/15 01:25:54;;;;;;;0.52;0.47;;;14.10;99.90;;;;;;4394732;32;20070;-77
2022/09/15 01:28:43;;;;;;;0.50;0.50;;;14.00;99.90;;;;;;4396405;32;20093;-77
2022/09/15 01:31:22;;;;;;;0.30;0.30;;;14.00;99.90;;;;;;4380835;32;20129;-77
2022/09/15 01:33:59;;;;;;;1.62;0.80;;;14.00;99.90;;;;;;4408352;32;20065;-77
2022/09/15 01:36:41;;;;;;;0.60;0.60;;;14.00;99.90;;;;;;4409391;32;20129;-77
2022/09/15 01:39:15;;;;;;;1.20;0.90;;;13.90;99.90;;;;;;4407776;32;20097;-77
2022/09/15 01:41:49;;;;;;;0.40;0.40;;;13.90;99.90;;;;;;4410512;32;20549;-77
2022/09/15 01:44:20;;;;;;;0.40;0.40;;;13.90;99.90;;;;;;4398871;32;20373;-77
2022/09/15 01:46:49;;;;;;;0.70;0.70;;;13.90;99.90;;;;;;4400134;32;20077;-77
2022/09/15 01:49:26;;;;;;;0.60;0.60;;;13.90;99.90;;;;;;4407978;32;20070;-77
2022/09/15 01:51:53;;;;;;;2.75;1.08;;;13.80;99.90;;;;;;4407493;32;20117;-77
2022/09/15 01:54:22;;;;;;;0.40;0.40;;;13.80;99.90;;;;;;4407586;32;20808;-77
2022/09/15 01:56:48;;;;;;;0.88;0.75;;;13.80;99.90;;;;;;4409755;32;20073;-77
2022/09/15 01:59:14;;;;;;;0.37;0.37;;;13.80;99.90;;;;;;4388125;32;20480;-77
2022/09/15 02:01:50;;;;;;;0.60;0.60;;;13.80;99.90;;;;;;4385760;32;20102;-77
2022/09/15 02:04:37;;;;;;;0.40;0.40;;;13.80;99.90;;;;;;4407713;32;20098;-77
2022/09/15 02:07:30;;;;;;;0.52;0.52;;;13.80;99.90;;;;;;4395638;32;20797;-77
2022/09/15 02:10:01;;;;;;;0.40;0.40;;;13.80;99.90;;;;;;4397641;32;20125;-77
2022/09/15 02:12:34;;;;;;;;;;;13.80;99.90;;;;;;4413631;32;20535;-77
2022/09/15 02:15:09;;;;;;;0.37;0.37;;;13.80;99.90;;;;;;4398640;32;19978;-77
2022/09/15 02:17:41;;;;;;;3.35;1.33;;;13.60;99.90;;;;;;4403779;32;20576;-77
2022/09/15 02:20:14;;;;;;;0.50;0.50;;;13.60;99.90;;;;;;4409354;32;20131;-77
2022/09/15 02:22:43;;;;;;;0.30;0.30;;;13.60;99.90;;;;;;4411651;32;20085;-77
2022/09/15 02:25:17;;;;;;;0.40;0.40;;;13.60;99.90;;;;;;4410689;32;20077;-76
2022/09/15 02:27:48;;;;;;;0.50;0.50;;;13.60;99.90;;;;;;4408695;32;20106;-77
2022/09/15 02:30:19;;;;;;;0.50;0.50;;;13.60;99.90;;;;;;4383507;32;20202;-77
2022/09/15 02:32:56;;;;;;;0.50;0.50;;;13.70;99.90;;;;;;4409873;32;20144;-77
2022/09/15 02:35:24;;;;;;;0.47;0.47;;;13.60;99.90;;;;;;4412246;32;20077;-77
2022/09/15 02:37:51;;;;;;;0.30;0.30;;;13.50;99.90;;;;;;4411581;32;20149;-76
2022/09/15 02:40:17;;;;;;;0.40;0.40;;;13.50;99.90;;;;;;4415061;32;20077;-76
2022/09/15 02:42:52;;;;;;;1.58;0.40;;;13.60;99.90;;;;;;4408508;32;20560;-77
2022/09/15 02:45:19;;;;;;;0.30;0.30;;;13.60;99.90;;;;;;4396038;32;21650;-77
2022/09/15 02:47:44;;;;;;;0.50;0.50;;;13.60;99.90;;;;;;4406711;32;20133;-77
2022/09/15 02:50:10;;;;;;;0.32;0.32;;;13.60;99.90;;;;;;4409912;32;20093;-77
2022/09/15 02:52:36;;;;;;;0.40;0.40;;;13.60;99.90;;;;;;4410828;32;20073;-77
2022/09/15 02:55:01;;;;;;;0.30;0.30;;;13.60;99.90;;;;;;4411702;32;20061;-77
2022/09/15 02:57:27;;;;;;;0.30;0.30;;;13.60;99.90;;;;;;4409976;32;20529;-77
2022/09/15 03:00:24;;;;;;;0.40;0.40;;;13.60;99.90;;;;;;4382507;32;20131;-76
2022/09/15 03:02:39;;;;;;;0.43;0.43;;;13.60;99.90;;;;;;4395444;32;20502;-77
2022/09/15 03:05:07;;;;;;;0.50;0.50;;;13.40;99.90;;;;;;4409815;32;20577;-77
2022/09/15 03:07:32;;;;;;;0.40;0.40;;;13.40;99.90;;;;;;4411453;32;20097;-76
2022/09/15 03:09:58;;;;;;;0.62;0.62;;;13.30;99.90;;;;;;4410922;32;20102;-77
2022/09/15 03:12:25;;;;;;;1.12;0.62;;;13.30;99.90;;;;;;4411736;32;20069;-77
2022/09/15 03:14:50;;;;;;;3.95;0.60;;;13.20;99.90;;;;;;4396905;32;20173;-77
2022/09/15 03:17:17;;;;;;;0.75;0.75;;;13.20;99.90;;;;;;4401276;32;20124;-77
2022/09/15 03:19:42;;;;;;;0.40;0.40;;;13.10;99.90;;;;;;4406314;32;20070;-77
2022/09/15 03:22:09;;;;;;;0.50;0.50;;;13.10;99.90;;;;;;4410816;32;20536;-77
2022/09/15 03:24:36;;;;;;;1.55;0.68;;;13.10;99.90;;;;;;4408924;32;20090;-77
2022/09/15 03:27:01;;;;;;;1.30;0.50;;;13.10;99.90;;;;;;4409217;32;20070;-77
2022/09/15 03:29:27;;;;;;;0.30;0.30;;;13.10;99.90;;;;;;4387439;32;20713;-77
2022/09/15 03:31:52;;;;;;;0.30;0.30;;;13.10;99.90;;;;;;4394501;32;20101;-77
2022/09/15 03:34:18;;;;;;;0.40;0.40;;;13.10;99.90;;;;;;4410262;32;20089;-77
2022/09/15 03:36:43;;;;;;;2.50;1.00;;;13.00;99.90;;;;;;4409843;32;20338;-76
2022/09/15 03:39:11;;;;;;;0.50;0.50;;;13.00;99.90;;;;;;4411197;32;20070;-76
2022/09/15 03:41:37;;;;;;;6.32;0.40;;;12.90;99.90;;;;;;4408677;32;20523;-77
2022/09/15 03:44:03;;;;;;;0.75;0.57;;;12.80;99.90;;;;;;4402286;32;20139;-77
2022/09/15 03:46:28;;;;;;;0.65;0.65;;;12.80;99.90;;;;;;4398803;32;20924;-77
2022/09/15 03:48:54;;;;;;;0.57;0.57;;;12.80;99.90;;;;;;4412583;32;20086;-77
2022/09/15 03:51:20;;;;;;;0.40;0.40;;;12.80;99.90;;;;;;4414060;32;20065;-77
2022/09/15 03:53:46;;;;;;;1.10;0.90;;;12.80;99.90;;;;;;4409643;32;20107;-77
2022/09/15 03:56:30;;;;;;;0.47;0.47;;;12.90;99.90;;;;;;4412415;32;20833;-77
2022/09/15 03:58:56;;;;;;;0.30;0.30;;;12.80;99.90;;;;;;4382828;32;20853;-77
2022/09/15 04:01:22;;;;;;;0.52;0.50;;;12.80;99.90;;;;;;4390797;32;20065;-77
2022/09/15 04:03:48;;;;;;;0.80;0.62;;;12.80;99.90;;;;;;4409549;32;20081;-77
2022/09/15 04:06:14;;;;;;;0.52;0.52;;;12.80;99.90;;;;;;4411879;32;20204;-77
2022/09/15 04:08:39;;;;;;;0.40;0.40;;;12.70;99.90;;;;;;4409810;32;20086;-77
2022/09/15 04:11:06;;;;;;;0.40;0.40;;;12.70;99.90;;;;;;4410580;32;20090;-77
2022/09/15 04:13:33;;;;;;;0.40;0.40;;;12.70;99.90;;;;;;4407262;32;20501;-78
2022/09/15 04:16:01;;;;;;;0.40;0.40;;;12.70;99.90;;;;;;4394804;32;20159;-77
2022/09/15 04:18:28;;;;;;;0.70;0.70;;;12.70;99.90;;;;;;4407971;32;20124;-77
2022/09/15 04:20:58;;;;;;;0.43;0.43;;;12.80;99.90;;;;;;4404963;32;20081;-76
2022/09/15 04:23:24;;;;;;;0.40;0.40;;;12.80;99.90;;;;;;4372961;32;20858;-77
2022/09/15 04:25:55;;;;;;;0.60;0.60;;;12.70;99.90;;;;;;4364489;32;20219;-77
2022/09/15 04:28:20;;;;;;;;;;;12.80;99.90;;;;;;4354393;32;20096;-77
2022/09/15 04:30:47;;;;;;;1.95;0.65;;;12.80;99.90;;;;;;4334339;32;20048;-76
2022/09/15 04:33:12;;;;;;;0.60;0.47;;;12.70;99.90;;;;;;4358109;32;20415;-77
2022/09/15 04:35:38;;;;;;;3.90;1.65;;;12.70;99.90;;;;;;4408181;32;20061;-77
2022/09/15 04:38:04;;;;;;;1.00;0.70;;;12.70;99.90;;;;;;4412811;32;20160;-76
2022/09/15 04:40:29;;;;;;;3.83;1.30;;;12.70;99.90;;;;;;4410579;32;20082;-76
2022/09/15 04:42:55;;;;;;;1.45;0.93;;;12.70;99.90;;;;;;4410053;32;20370;-76
2022/09/15 04:45:20;;;;;;;2.92;0.65;;;12.60;99.90;;;;;;4394858;32;20091;-77
2022/09/15 04:47:47;;;;;;;1.00;0.60;;;12.60;99.90;;;;;;4400289;32;20574;-78
2022/09/15 04:50:12;;;;;;;0.40;0.40;;;12.70;99.90;;;;;;4407254;32;20110;-76
2022/09/15 04:52:38;;;;;;;0.65;0.65;;;12.70;99.90;;;;;;4387977;32;20109;-77
2022/09/15 04:55:04;;;;;;;0.73;0.73;;;12.60;99.90;;;;;;4357537;32;20077;-76
2022/09/15 04:57:29;;;;;;;0.47;0.47;;;12.60;99.90;;;;;;4401206;32;20128;-77
2022/09/15 04:59:55;;;;;;;0.47;0.47;;;12.60;99.90;;;;;;4381925;32;20456;-76
2022/09/15 05:02:20;;;;;;;0.77;0.77;;;12.70;99.90;;;;;;4384473;32;20121;-76
2022/09/15 05:04:47;;;;;;;0.68;0.68;;;12.70;99.90;;;;;;4371720;32;20408;-76
2022/09/15 05:07:13;;;;;;;0.37;0.37;;;12.70;99.90;;;;;;4368328;32;20220;-76
2022/09/15 05:09:38;;;;;;;0.43;0.43;;;12.70;99.90;;;;;;4354444;32;20461;-76
2022/09/15 05:12:04;;;;;;;1.35;0.95;;;12.70;99.90;;;;;;4350349;32;20291;-76
2022/09/15 05:14:30;;;;;;;0.40;0.40;;;12.80;99.90;;;;;;4352632;32;20073;-76
2022/09/15 05:16:56;;;;;;;0.40;0.40;;;12.80;99.90;;;;;;4369820;32;20520;-78
2022/09/15 05:19:21;;;;;;;0.40;0.40;;;12.80;99.90;;;;;;4326750;32;20597;-76
2022/09/15 05:21:47;;;;;;;0.40;0.40;;;12.80;99.90;;;;;;4320030;32;20252;-77
2022/09/15 05:24:12;;;;;;;0.55;0.55;;;12.80;99.90;;;;;;4289075;32;20563;-76
2022/09/15 05:26:40;;;;;;;0.43;0.37;;;12.80;99.90;;;;;;4291491;32;20292;-76
2022/09/15 05:29:07;;;;;;;2.12;0.82;;;12.90;99.90;;;;;;4301667;32;20402;-77
2022/09/15 05:31:32;;;;;;;0.95;0.95;;;12.90;99.90;;;;;;4316551;32;20094;-78
2022/09/15 05:34:04;;;;;;;3.17;1.55;;;12.80;99.90;;;;;;4339388;32;20101;-76
2022/09/15 05:36:31;;;;;;;0.40;0.40;;;12.90;99.90;;;;;;4337319;32;20332;-76
2022/09/15 05:38:57;;;;;;;0.70;0.70;;;12.80;99.90;;;;;;4336276;32;20128;-76
2022/09/15 05:41:27;;;;;;;3.20;1.67;;;12.90;99.90;;;;;;4359599;32;20159;-77
2022/09/15 05:43:55;;;;;;;0.45;0.45;;;12.90;99.90;;;;;;4369329;32;20242;-78
2022/09/15 05:46:21;;;;;;;1.20;1.10;;;13.00;99.90;;;;;;4382543;32;20097;-77
2022/09/15 05:48:47;;;;;;;6.32;0.75;;;13.00;99.90;;;;;;4366254;32;20181;-77
2022/09/15 05:51:13;;;;;;;0.40;0.40;;;13.10;99.90;;;;;;4375306;32;21022;-78
2022/09/15 05:53:39;;;;;;;0.45;0.45;;;13.10;99.90;;;;;;4377019;32;20179;-78
2022/09/15 05:56:09;;;;;;;7.68;0.73;;;13.10;99.90;;;;;;4387534;32;20248;-77
2022/09/15 05:58:37;;;;;;;0.70;0.70;;;13.10;99.90;;;;;;4377532;32;20121;-77
2022/09/15 06:01:06;;;;;;;0.45;0.45;;;13.20;99.90;;;;;;4365624;32;20118;-77
2022/09/15 06:03:31;;;;;;;0.50;0.50;;;13.10;99.90;;;;;;4360042;32;20799;-78
2022/09/15 06:05:59;;;;;;;3.30;1.15;;;13.10;99.90;;;;;;4358627;32;20369;-77
2022/09/15 06:08:29;;;;;;;0.62;0.60;;;13.30;99.90;;;;;;4372466;32;20085;-77
2022/09/15 06:10:59;;;;;;;0.40;0.40;;;13.30;99.90;;;;;;4376969;32;20093;-77
2022/09/15 06:13:24;;;;;;;0.60;0.60;;;13.30;99.90;;;;;;4368684;32;20965;-76
2022/09/15 06:15:50;;;;;;;0.50;0.50;;;13.40;99.90;;;;;;4368937;32;20151;-76
2022/09/15 06:18:16;;;;;;;5.18;2.37;;;13.50;99.90;;;;;;4366400;32;20269;-77
2022/09/15 06:20:41;;;;;;;0.85;0.85;;;13.60;99.90;;;;;;4368993;32;20356;-77
2022/09/15 06:23:07;;;;;;;2.60;0.70;;;13.60;99.90;;;;;;4365992;32;20502;-77
2022/09/15 06:25:32;;;;;;;2.17;0.85;;;13.80;99.90;;;;;;4378406;32;20097;-77
2022/09/15 06:27:58;;;;;;;0.40;0.40;;;14.00;99.90;;;;;;4373361;32;20411;-76
2022/09/15 06:30:23;;;;;;;0.60;0.60;;;14.10;99.90;;;;;;4359904;32;20652;-77
2022/09/15 06:32:49;;;;;;;0.65;0.50;;;14.20;99.90;;;;;;4367509;32;20144;-76
2022/09/15 06:35:14;;;;;;;0.75;0.52;;;14.30;99.90;;;;;;4366908;32;21068;-77
2022/09/15 06:37:40;;;;;;;1.05;1.00;;;14.30;99.90;;;;;;4381046;32;20090;-75
2022/09/15 06:40:07;;;;;;;0.68;0.68;;;14.40;99.90;;;;;;4386413;32;20545;-76
2022/09/15 06:42:32;;;;;;;0.40;0.40;;;14.40;99.90;;;;;;4381137;32;20117;-77
2022/09/15 06:44:58;;;;;;;0.50;0.50;;;14.40;99.90;;;;;;4385025;32;20098;-77
2022/09/15 06:47:24;;;;;;;0.40;0.40;;;14.50;99.90;;;;;;4379512;32;20114;-76
2022/09/15 06:49:49;;;;;;;0.85;0.70;;;14.50;99.90;;;;;;4365441;32;20349;-76
2022/09/15 06:52:14;;;;;;;0.35;0.35;;;14.60;99.90;;;;;;4360441;32;20153;-76
2022/09/15 06:54:40;;;;;;;0.60;0.60;;;14.60;99.90;;;;;;4374454;32;20109;-76
2022/09/15 06:57:06;;;;;;;0.30;0.30;;;14.60;99.90;;;;;;4376769;32;20093;-76
2022/09/15 06:59:31;;;;;;;0.45;0.45;;;14.60;99.90;;;;;;4368830;32;20495;-76
2022/09/15 07:01:57;;;;;;;1.55;0.70;;;14.60;99.90;;;;;;4357556;32;20648;-76
2022/09/15 07:04:22;;;;;;;0.50;0.50;;;14.60;99.90;;;;;;4362578;32;20265;-77
2022/09/15 07:06:49;;;;;;;0.40;0.40;;;14.70;99.90;;;;;;4371487;32;20613;-76
2022/09/15 07:09:15;;;;;;;0.40;0.40;;;14.60;99.90;;;;;;4375863;32;20085;-77
2022/09/15 07:11:40;;;;;;;0.40;0.40;;;14.60;99.90;;;;;;4377703;32;20193;-77
2022/09/15 07:14:06;;;;;;;1.15;0.75;;;14.60;99.90;;;;;;4381087;32;20610;-77
2022/09/15 07:16:31;;;;;;;1.15;0.60;;;14.70;99.90;;;;;;4382961;32;20097;-77
2022/09/15 07:19:00;;;;;;;0.52;0.52;;;14.70;99.90;;;;;;4366644;32;20364;-77
2022/09/15 07:21:26;;;;;;;0.60;0.60;;;14.80;99.90;;;;;;4362909;32;21151;-77
2022/09/15 07:23:51;;;;;;;0.40;0.40;;;14.90;99.90;;;;;;4363069;32;20086;-77
2022/09/15 07:26:21;;;;;;;1.08;0.98;;;15.00;99.90;;;;;;4378821;32;20090;-77
2022/09/15 07:28:50;;;;;;;0.50;0.50;;;15.10;99.90;;;;;;4369399;32;20186;-77
2022/09/15 07:31:19;;;;;;;0.45;0.45;;;15.20;99.90;;;;;;4355166;32;20089;-78
2022/09/15 07:33:44;;;;;;;0.60;0.60;;;15.20;99.90;;;;;;4347205;32;20671;-77
2022/09/15 07:36:10;;;;;;;26.90;1.08;;;15.20;99.90;;;;;;4343502;32;20129;-76
2022/09/15 07:38:41;;;;;;;0.50;0.50;;;15.30;99.90;;;;;;4366568;32;20105;-78
2022/09/15 07:41:09;;;;;;;0.62;0.52;;;15.30;99.90;;;;;;4369996;32;20283;-77
2022/09/15 07:43:35;;;;;;;1.00;0.60;;;15.10;99.90;;;;;;4379879;32;20110;-76
2022/09/15 07:46:02;;;;;;;1.85;1.48;;;15.10;99.90;;;;;;4380121;32;20208;-77
2022/09/15 07:48:28;;;;;;;0.60;0.60;;;15.10;99.90;;;;;;4361879;32;20170;-77
2022/09/15 07:50:54;;;;;;;0.50;0.50;;;15.00;99.90;;;;;;4355267;32;20236;-77
2022/09/15 07:53:20;;;;;;;1.65;0.65;;;15.00;99.90;;;;;;4362837;32;20803;-78
2022/09/15 07:55:52;;;;;;;0.60;0.60;;;15.00;99.90;;;;;;4375333;32;20090;-78
2022/09/15 07:58:18;;;;;;;1.37;0.88;;;15.20;99.90;;;;;;4377865;32;21184;-77
2022/09/15 08:00:44;;;;;;;16.80;0.52;;;15.20;99.90;;;;;;4364635;32;21143;-77
2022/09/15 08:03:11;;;;;;;0.30;0.30;;;15.10;99.90;;;;;;4359215;32;20098;-77
2022/09/15 08:05:37;;;;;;;0.40;0.40;;;15.20;99.90;;;;;;4362097;32;20432;-77
2022/09/15 08:08:03;;;;;;;4.80;1.08;;;15.20;99.90;;;;;;4371134;32;20490;-77
2022/09/15 08:10:28;;;;;;;0.90;0.70;;;15.30;99.90;;;;;;4370829;32;20104;-77
2022/09/15 08:12:54;;;;;;;0.50;0.50;;;15.40;99.90;;;;;;4373957;32;20078;-77
2022/09/15 08:15:20;;;;;;;0.50;0.50;;;15.50;99.90;;;;;;4382430;32;20078;-77
2022/09/15 08:17:45;;;;;;;2.08;1.37;;;15.50;99.90;;;;;;4376826;32;20122;-76
2022/09/15 08:20:12;;;;;;;0.45;0.45;;;15.70;99.90;;;;;;4377588;32;20081;-76
2022/09/15 08:22:38;;;;;;;0.40;0.40;;;15.70;99.90;;;;;;4369073;32;20082;-76
2022/09/15 08:25:04;;;;;;;0.55;0.55;;;15.70;99.90;;;;;;4363700;32;20941;-77
2022/09/15 08:27:30;;;;;;;1.55;1.10;;;15.70;99.90;;;;;;4364674;32;20177;-76
2022/09/15 08:29:56;;;;;;;0.55;0.45;;;15.70;99.90;;;;;;4359612;32;20077;-78
2022/09/15 08:32:22;;;;;;;2.80;0.82;;;15.70;99.90;;;;;;4365827;32;111823;-78
2022/09/15 08:34:53;;;;;;;0.60;0.60;;;15.80;99.90;;;;;;4367345;32;20766;-78
2022/09/15 08:37:19;;;;;;;1.77;1.35;;;15.80;99.90;;;;;;4370309;32;20132;-78
2022/09/15 08:39:46;;;;;;;0.37;0.37;;;15.80;99.90;;;;;;4376997;32;20117;-78
2022/09/15 08:42:16;;;;;;;0.40;0.40;;;15.80;99.90;;;;;;4381635;32;20846;-78
2022/09/15 08:44:45;;;;;;;8.70;1.48;;;15.90;99.90;;;;;;4379884;32;20077;-77
2022/09/15 08:47:26;;;;;;;0.40;0.40;;;16.00;99.90;;;;;;4361006;32;20110;-77
2022/09/15 08:49:57;;;;;;;;;;;16.10;99.90;;;;;;4367032;32;21423;-77
2022/09/15 08:52:31;;;;;;;8.38;0.73;;;16.10;99.90;;;;;;4374864;32;20145;-77
2022/09/15 08:55:08;;;;;;;3.85;0.62;;;16.10;99.90;;;;;;4377388;32;20590;-77
2022/09/15 08:57:34;;;;;;;0.37;0.37;;;16.00;99.90;;;;;;4381136;32;20513;-77
2022/09/15 08:59:59;;;;;;;0.40;0.40;;;16.10;99.90;;;;;;4368412;32;20681;-77
2022/09/15 09:02:39;;;;;;;0.40;0.40;;;16.10;99.90;;;;;;4363773;32;20531;-78
2022/09/15 09:05:16;;;;;;;0.40;0.40;;;16.10;99.90;;;;;;4370829;32;20169;-78
2022/09/15 09:08:15;;;;;;;0.40;0.40;;;16.00;99.90;;;;;;4377393;32;20106;-78
2022/09/15 09:10:51;;;;;;;0.50;0.50;;;15.90;99.90;;;;;;4372150;32;20098;-79
2022/09/15 09:13:29;;;;;;;1.27;0.50;;;15.90;99.90;;;;;;4381613;32;20088;-76
2022/09/15 09:16:18;;;;;;;0.50;0.50;;;15.90;99.90;;;;;;4370539;32;20283;-76
2022/09/15 09:19:15;;;;;;;0.55;0.55;;;16.00;99.90;;;;;;4356605;32;20980;-76
2022/09/15 09:21:46;;;;;;;0.40;0.40;;;16.00;99.90;;;;;;4332825;32;20102;-78
2022/09/15 09:24:16;;;;;;;0.55;0.55;;;16.00;99.90;;;;;;4328829;32;20268;-78
2022/09/15 09:26:44;;;;;;;2.93;1.27;;;16.20;99.90;;;;;;4349400;32;20267;-76
2022/09/15 09:29:17;;;;;;;0.50;0.50;;;16.20;99.90;;;;;;4348631;32;20423;-79
2022/09/15 09:31:46;;;;;;;0.68;0.68;;;16.30;99.90;;;;;;4360022;32;20221;-78
2022/09/15 09:34:42;;;;;;;0.65;0.65;;;16.30;99.90;;;;;;4349158;32;20151;-76
2022/09/15 09:37:12;;;;;;;0.50;0.50;;;16.30;99.90;;;;;;4355952;32;20450;-77
2022/09/15 09:39:38;;;;;;;0.60;0.60;;;16.30;99.90;;;;;;4371750;32;20643;-77
2022/09/15 09:42:05;;;;;;;0.60;0.60;;;16.40;99.90;;;;;;4370978;32;20164;-77
2022/09/15 09:44:31;;;;;;;0.47;0.47;;;16.40;99.90;;;;;;4374390;32;20093;-75
2022/09/15 09:46:59;;;;;;;0.32;0.32;;;16.50;99.90;;;;;;4373857;32;20579;-75
2022/09/15 09:49:28;;;;;;;0.50;0.50;;;16.50;99.90;;;;;;4365718;32;20521;-75
2022/09/15 09:51:58;;;;;;;0.40;0.40;;;16.50;99.90;;;;;;4368792;32;20360;-76
2022/09/15 09:54:26;;;;;;;2.10;1.25;;;16.70;99.90;;;;;;4370270;32;20260;-76
2022/09/15 09:56:52;;;;;;;0.32;0.32;;;16.90;99.90;;;;;;4367051;32;20312;-77
2022/09/15 09:59:40;;;;;;;0.40;0.40;;;17.10;99.90;;;;;;4358206;32;20097;-77
2022/09/15 10:02:10;;;;;;;1.77;0.55;;;17.30;99.90;;;;;;4347495;32;20097;-77
2022/09/15 10:04:37;;;;;;;0.40;0.40;;;17.40;99.90;;;;;;4344858;32;20115;-76
2022/09/15 10:07:03;;;;;;;0.40;0.40;;;17.50;99.90;;;;;;4375873;32;20195;-76
2022/09/15 10:09:30;;;;;;;0.43;0.43;;;17.40;99.90;;;;;;4374085;32;20094;-76
2022/09/15 10:11:59;;;;;;;0.40;0.40;;;17.40;99.90;;;;;;4368212;32;20096;-75
2022/09/15 10:14:27;;;;;;;0.82;0.75;;;17.60;99.90;;;;;;4374658;32;20084;-76
2022/09/15 10:16:57;;;;;;;0.57;0.57;;;17.70;99.90;;;;;;4366539;32;20619;-77
2022/09/15 10:19:23;;;;;;;0.30;0.30;;;17.80;99.90;;;;;;4351013;32;20102;-77
2022/09/15 10:21:49;;;;;;;0.40;0.40;;;18.00;99.90;;;;;;4364136;32;20947;-77
2022/09/15 10:24:37;;;;;;;0.60;0.60;;;17.90;99.90;;;;;;4370241;32;20101;-78
2022/09/15 10:27:27;;;;;;;0.30;0.30;;;17.70;99.90;;;;;;4363903;32;20081;-78
2022/09/15 10:29:54;;;;;;;0.40;0.40;;;17.60;99.90;;;;;;4372572;32;20833;-77
2022/09/15 10:32:23;;;;;;;0.30;0.30;;;17.70;99.90;;;;;;4371293;32;20483;-77
2022/09/15 10:35:05;;;;;;;0.47;0.47;;;17.70;99.90;;;;;;4368561;32;20097;-75
2022/09/15 10:37:37;;;;;;;0.80;0.80;;;17.80;99.90;;;;;;4388088;32;21169;-74
2022/09/15 10:40:30;;;;;;;0.43;0.43;;;18.00;99.90;;;;;;4388794;32;20568;-74
2022/09/15 10:43:10;;;;;;;0.32;0.32;;;18.30;99.90;;;;;;4376161;32;20986;-73
2022/09/15 10:45:38;;;;;;;0.55;0.55;;;18.20;99.90;;;;;;4388412;32;20101;-76
2022/09/15 10:48:44;;;;;;;0.30;0.30;;;18.30;99.90;;;;;;4376801;32;20517;-75
2022/09/15 10:51:40;;;;;;;0.77;0.73;;;18.30;99.90;;;;;;4347760;32;20962;-74
2022/09/15 10:54:22;;;;;;;0.60;0.60;;;18.60;99.90;;;;;;4332423;32;20181;-75
2022/09/15 10:56:56;;;;;;;0.43;0.43;;;18.90;99.90;;;;;;4365662;32;20085;-75
2022/09/15 10:59:42;;;;;;;0.40;0.40;;;19.10;99.90;;;;;;4356040;32;20219;-74
2022/09/15 11:02:38;;;;;;;0.30;0.30;;;19.30;99.90;;;;;;4366493;32;20844;-74
2022/09/15 11:05:39;;;;;;;0.62;0.45;;;19.30;99.90;;;;;;4355242;32;20105;-77
2022/09/15 11:08:07;;;;;;;0.50;0.50;;;19.40;99.90;;;;;;4366106;32;21432;-75
2022/09/15 11:10:39;;;;;;;0.40;0.40;;;19.50;99.90;;;;;;4373368;32;20468;-74
2022/09/15 11:13:14;;;;;;;0.65;0.62;;;19.60;99.90;;;;;;4386161;32;20094;-75
2022/09/15 11:16:07;;;;;;;0.50;0.50;;;19.80;99.90;;;;;;4386643;32;20090;-74
2022/09/15 11:18:43;;;;;;;0.50;0.50;;;19.90;99.90;;;;;;4356761;32;21059;-75
2022/09/15 11:21:20;;;;;;;0.50;0.50;;;20.00;99.90;;;;;;4362305;32;20180;-76
2022/09/15 11:24:10;;;;;;;1.55;1.10;;;19.90;99.90;;;;;;4360575;32;20114;-76
2022/09/15 11:26:48;;;;;;;1.42;1.05;;;19.90;99.90;;;;;;4351562;32;20137;-76
2022/09/15 11:29:22;;;;;;;0.50;0.50;;;19.90;99.90;;;;;;4373299;32;20113;-74
2022/09/15 11:31:55;;;;;;;6.45;1.67;;;19.80;99.90;;;;;;4364152;32;20097;-75
2022/09/15 11:34:27;;;;;;;0.37;0.37;;;19.70;99.90;;;;;;4368123;32;20837;-75
2022/09/15 11:37:02;;;;;;;0.40;0.40;;;19.40;99.90;;;;;;4369811;32;20379;-75
2022/09/15 11:39:36;;;;;;;0.40;0.40;;;19.70;99.90;;;;;;4377338;32;20487;-74
2022/09/15 11:42:15;;;;;;;0.40;0.40;;;20.10;99.90;;;;;;4355003;32;20081;-75
2022/09/15 11:44:43;;;;;;;0.35;0.30;;;20.40;99.90;;;;;;4349672;32;21106;-76
2022/09/15 11:47:34;;;;;;;0.30;0.30;;;20.10;99.90;;;;;;4362057;32;20097;-76
2022/09/15 11:50:10;;;;;;;0.30;0.30;;;20.00;99.90;;;;;;4346514;32;20138;-77
2022/09/15 11:53:02;;;;;;;1.23;0.55;;;19.60;99.90;;;;;;4375940;32;20744;-77
2022/09/15 11:55:38;;;;;;;0.37;0.37;;;19.70;99.90;;;;;;4368762;32;20187;-77
2022/09/15 11:58:31;;;;;;;3.17;1.25;;;19.90;99.90;;;;;;4389125;32;20995;-77
2022/09/15 12:01:10;;;;;;;0.43;0.43;;;19.80;99.90;;;;;;4370596;32;20353;-77
2022/09/15 12:03:47;;;;;;;1.52;0.40;;;19.50;99.90;;;;;;4372837;32;20369;-77
2022/09/15 12:06:19;;;;;;;0.30;0.30;;;19.00;99.90;;;;;;4380067;32;20081;-76
2022/09/15 12:08:51;;;;;;;0.40;0.40;;;19.00;99.90;;;;;;4385724;32;20599;-75
2022/09/15 12:11:22;;;;;;;0.68;0.50;;;19.10;99.90;;;;;;4388852;32;20482;-77
2022/09/15 12:13:47;;;;;;;0.57;0.50;;;18.90;99.90;;;;;;4385790;32;20090;-76
2022/09/15 12:16:15;;;;;;;0.30;0.30;;;18.80;99.90;;;;;;4367503;32;20204;-77
2022/09/15 12:18:51;;;;;;;0.30;0.30;;;19.00;99.90;;;;;;4369703;32;20270;-77
2022/09/15 12:21:42;;;;;;;0.40;0.40;;;19.30;99.90;;;;;;4356329;32;20252;-77
2022/09/15 12:24:13;;;;;;;;;;;19.30;99.90;;;;;;4357238;32;20388;-75
2022/09/15 12:26:42;;;;;;;0.35;0.35;;;19.00;99.90;;;;;;4366410;32;20529;-76
2022/09/15 12:29:28;;;;;;;0.35;0.35;;;18.70;99.90;;;;;;4350876;32;20253;-77
2022/09/15 12:32:19;;;;;;;0.30;0.30;;;18.50;99.90;;;;;;4355305;32;20423;-77
2022/09/15 12:35:24;;;;;;;0.40;0.40;;;18.30;99.90;;;;;;4347082;32;20089;-76
2022/09/15 12:37:55;;;;;;;0.30;0.30;;;18.70;99.90;;;;;;4350979;32;20656;-77
2022/09/15 12:40:38;;;;;;;0.50;0.50;;;19.20;99.90;;;;;;4374451;32;20081;-76
2022/09/15 12:43:17;;;;;;;0.40;0.40;;;19.90;99.90;;;;;;4374089;32;20664;-76
2022/09/15 12:45:55;;;;;;;0.37;0.37;;;20.00;99.90;;;;;;4370755;32;20315;-77
2022/09/15 12:48:26;;;;;;;0.40;0.40;;;20.10;99.90;;;;;;4370680;32;20215;-77
2022/09/15 12:50:55;;;;;;;0.60;0.60;;;19.80;99.90;;;;;;4369109;32;20689;-77
2022/09/15 12:53:25;;;;;;;0.30;0.30;;;19.50;99.90;;;;;;4363037;32;20854;-77
2022/09/15 12:55:56;;;;;;;0.40;0.40;;;19.30;99.90;;;;;;4366552;32;20285;-77
2022/09/15 12:58:33;;;;;;;0.40;0.40;;;19.20;99.90;;;;;;4365973;32;20635;-76
2022/09/15 13:01:24;;;;;;;0.50;0.50;;;19.10;99.90;;;;;;4365733;32;20086;-76
2022/09/15 13:03:53;;;;;;;0.82;0.82;;;19.10;99.90;;;;;;4346079;32;21328;-76
2022/09/15 13:06:28;;;;;;;0.45;0.45;;;19.30;99.90;;;;;;4372497;32;20775;-76
2022/09/15 13:09:04;;;;;;;0.35;0.35;;;19.70;99.90;;;;;;4375894;32;20394;-75